sensor_id;sensor_type;location;lat;lon;timestamp;temperature;humidity
8778;DHT22;4425;50.872;4.712;2024-03-06T00:01:26;6.90;99.90
8778;DHT22;4425;50.872;4.712;2024-03-06T00:03:54;6.90;99.90
8778;DHT22;4425;50.872;4.712;2024-03-06T00:06:23;6.90;99.90
8778;DHT22;4425;50.872;4.712;2024-03-06T00:08:52;6.90;99.90
8778;DHT22;4425;50.872;4.712;2024-03-06T00:11:19;6.90;99.90
8778;DHT22;4425;50.872;4.712;2024-03-06T00:13:47;6.90;99.90
8778;DHT22;4425;50.872;4.712;2024-03-06T00:16:14;6.80;99.90
8778;DHT22;4425;50.872;4.712;2024-03-06T00:18:47;6.80;99.90
8778;DHT22;4425;50.872;4.712;2024-03-06T00:21:16;6.80;99.90
8778;DHT22;4425;50.872;4.712;2024-03-06T00:23:43;6.80;99.90
8778;DHT22;4425;50.872;4.712;2024-03-06T00:26:11;6.80;99.90
8778;DHT22;4425;50.872;4.712;2024-03-06T00:28:39;6.70;99.90
8778;DHT22;4425;50.872;4.712;2024-03-06T00:31:05;6.70;99.90
8778;DHT22;4425;50.872;4.712;2024-03-06T00:33:32;6.70;99.90
8778;DHT22;4425;50.872;4.712;2024-03-06T00:36:05;6.70;99.90
8778;DHT22;4425;50.872;4.712;2024-03-06T00:38:34;6.70;99.90
8778;DHT22;4425;50.872;4.712;2024-03-06T00:41:11;6.70;99.90
8778;DHT22;4425;50.872;4.712;2024-03-06T00:43:38;6.70;99.90
8778;DHT22;4425;50.872;4.712;2024-03-06T00:46:05;6.60;99.90
8778;DHT22;4425;50.872;4.712;2024-03-06T00:48:32;6.60;99.90
8778;DHT22;4425;50.872;4.712;2024-03-06T00:51:00;6.70;99.90
8778;DHT22;4425;50.872;4.712;2024-03-06T00:53:27;6.70;99.90
8778;DHT22;4425;50.872;4.712;2024-03-06T00:55:56;6.70;99.90
8778;DHT22;4425;50.872;4.712;2024-03-06T00:58:26;6.70;99.90
8778;DHT22;4425;50.872;4.712;2024-03-06T01:00:53;6.60;99.90
8778;DHT22;4425;50.872;4.712;2024-03-06T01:03:20;6.60;99.90
8778;DHT22;4425;50.872;4.712;2024-03-06T01:05:48;6.60;99.90
8778;DHT22;4425;50.872;4.712;2024-03-06T01:08:23;6.60;99.90
8778;DHT22;4425;50.872;4.712;2024-03-06T01:10:52;6.60;99.90
8778;DHT22;4425;50.872;4.712;2024-03-06T01:13:31;6.50;99.90
8778;DHT22;4425;50.872;4.712;2024-03-06T01:16:04;6.50;99.90
8778;DHT22;4425;50.872;4.712;2024-03-06T01:18:37;6.50;99.90
8778;DHT22;4425;50.872;4.712;2024-03-06T01:21:08;6.50;99.90
8778;DHT22;4425;50.872;4.712;2024-03-06T01:23:38;6.40;99.90
8778;DHT22;4425;50.872;4.712;2024-03-06T01:26:06;6.40;99.90
8778;DHT22;4425;50.872;4.712;2024-03-06T01:28:39;6.40;99.90
8778;DHT22;4425;50.872;4.712;2024-03-06T01:31:08;6.40;99.90
8778;DHT22;4425;50.872;4.712;2024-03-06T01:33:40;6.40;99.90
8778;DHT22;4425;50.872;4.712;2024-03-06T01:36:08;6.40;99.90
8778;DHT22;4425;50.872;4.712;2024-03-06T01:38:42;6.40;99.90
8778;DHT22;4425;50.872;4.712;2024-03-06T01:41:13;6.30;99.90
8778;DHT22;4425;50.872;4.712;2024-03-06T01:43:42;6.30;99.90
8778;DHT22;4425;50.872;4.712;2024-03-06T01:46:09;6.20;99.90
8778;DHT22;4425;50.872;4.712;2024-03-06T01:48:40;6.20;99.90
8778;DHT22;4425;50.872;4.712;2024-03-06T01:51:23;6.10;99.90
8778;DHT22;4425;50.872;4.712;2024-03-06T01:53:51;6.10;99.90
8778;DHT22;4425;50.872;4.712;2024-03-06T01:56:19;6.10;99.90
8778;DHT22;4425;50.872;4.712;2024-03-06T01:58:50;6.00;99.90
8778;DHT22;4425;50.872;4.712;2024-03-06T02:01:18;6.10;99.90
8778;DHT22;4425;50.872;4.712;2024-03-06T02:03:50;6.00;99.90
8778;DHT22;4425;50.872;4.712;2024-03-06T02:06:22;6.00;99.90
8778;DHT22;4425;50.872;4.712;2024-03-06T02:08:53;6.00;99.90
8778;DHT22;4425;50.872;4.712;2024-03-06T02:11:21;5.90;99.90
8778;DHT22;4425;50.872;4.712;2024-03-06T02:13:50;5.90;99.90
8778;DHT22;4425;50.872;4.712;2024-03-06T02:16:17;6.00;99.90
8778;DHT22;4425;50.872;4.712;2024-03-06T02:18:52;5.90;99.90
8778;DHT22;4425;50.872;4.712;2024-03-06T02:21:21;5.90;99.90
8778;DHT22;4425;50.872;4.712;2024-03-06T02:23:49;5.90;99.90
8778;DHT22;4425;50.872;4.712;2024-03-06T02:26:17;5.90;99.90
8778;DHT22;4425;50.872;4.712;2024-03-06T02:28:47;5.80;99.90
8778;DHT22;4425;50.872;4.712;2024-03-06T02:31:15;5.80;99.90
8778;DHT22;4425;50.872;4.712;2024-03-06T02:33:42;5.80;99.90
8778;DHT22;4425;50.872;4.712;2024-03-06T02:36:10;5.70;99.90
8778;DHT22;4425;50.872;4.712;2024-03-06T02:38:45;5.70;99.90
8778;DHT22;4425;50.872;4.712;2024-03-06T02:41:15;5.70;99.90
8778;DHT22;4425;50.872;4.712;2024-03-06T02:43:43;5.70;99.90
8778;DHT22;4425;50.872;4.712;2024-03-06T02:46:10;5.60;99.90
8778;DHT22;4425;50.872;4.712;2024-03-06T02:48:37;5.60;99.90
8778;DHT22;4425;50.872;4.712;2024-03-06T02:51:05;5.60;99.90
8778;DHT22;4425;50.872;4.712;2024-03-06T02:53:31;5.50;99.90
8778;DHT22;4425;50.872;4.712;2024-03-06T02:56:00;5.50;99.90
8778;DHT22;4425;50.872;4.712;2024-03-06T02:58:27;5.50;99.90
8778;DHT22;4425;50.872;4.712;2024-03-06T03:00:57;5.50;99.90
8778;DHT22;4425;50.872;4.712;2024-03-06T03:03:23;5.50;99.90
8778;DHT22;4425;50.872;4.712;2024-03-06T03:05:50;5.50;99.90
8778;DHT22;4425;50.872;4.712;2024-03-06T03:08:18;5.50;99.90
8778;DHT22;4425;50.872;4.712;2024-03-06T03:10:46;5.50;99.90
8778;DHT22;4425;50.872;4.712;2024-03-06T03:13:15;5.40;99.90
8778;DHT22;4425;50.872;4.712;2024-03-06T03:15:42;5.40;99.90
8778;DHT22;4425;50.872;4.712;2024-03-06T03:18:09;5.40;99.90
8778;DHT22;4425;50.872;4.712;2024-03-06T03:20:37;5.40;99.90
8778;DHT22;4425;50.872;4.712;2024-03-06T03:23:04;5.40;99.90
8778;DHT22;4425;50.872;4.712;2024-03-06T03:25:32;5.40;99.90
8778;DHT22;4425;50.872;4.712;2024-03-06T03:28:03;5.30;99.90
8778;DHT22;4425;50.872;4.712;2024-03-06T03:30:31;5.30;99.90
8778;DHT22;4425;50.872;4.712;2024-03-06T03:32:58;5.20;99.90
8778;DHT22;4425;50.872;4.712;2024-03-06T03:35:26;5.20;99.90
8778;DHT22;4425;50.872;4.712;2024-03-06T03:37:53;5.20;99.90
8778;DHT22;4425;50.872;4.712;2024-03-06T03:40:21;5.20;99.90
8778;DHT22;4425;50.872;4.712;2024-03-06T03:42:48;5.20;99.90
8778;DHT22;4425;50.872;4.712;2024-03-06T03:45:15;5.20;99.90
8778;DHT22;4425;50.872;4.712;2024-03-06T03:47:45;5.10;99.90
8778;DHT22;4425;50.872;4.712;2024-03-06T03:50:12;5.10;99.90
8778;DHT22;4425;50.872;4.712;2024-03-06T03:52:39;5.10;99.90
8778;DHT22;4425;50.872;4.712;2024-03-06T03:55:10;5.10;99.90
8778;DHT22;4425;50.872;4.712;2024-03-06T03:57:37;5.10;99.90
8778;DHT22;4425;50.872;4.712;2024-03-06T04:00:05;5.10;99.90
8778;DHT22;4425;50.872;4.712;2024-03-06T04:02:36;5.00;99.90
8778;DHT22;4425;50.872;4.712;2024-03-06T04:05:06;5.00;99.90
8778;DHT22;4425;50.872;4.712;2024-03-06T04:07:33;5.00;99.90
8778;DHT22;4425;50.872;4.712;2024-03-06T04:10:01;4.90;99.90
8778;DHT22;4425;50.872;4.712;2024-03-06T04:12:28;5.00;99.90
8778;DHT22;4425;50.872;4.712;2024-03-06T04:14:56;5.00;99.90
8778;DHT22;4425;50.872;4.712;2024-03-06T04:17:23;5.00;99.90
8778;DHT22;4425;50.872;4.712;2024-03-06T04:19:51;5.00;99.90
8778;DHT22;4425;50.872;4.712;2024-03-06T04:22:20;4.90;99.90
8778;DHT22;4425;50.872;4.712;2024-03-06T04:24:47;4.90;99.90
8778;DHT22;4425;50.872;4.712;2024-03-06T04:27:14;4.90;99.90
8778;DHT22;4425;50.872;4.712;2024-03-06T04:29:42;4.80;99.90
8778;DHT22;4425;50.872;4.712;2024-03-06T04:32:09;4.80;99.90
8778;DHT22;4425;50.872;4.712;2024-03-06T04:34:36;4.70;99.90
8778;DHT22;4425;50.872;4.712;2024-03-06T04:37:05;4.70;99.90
8778;DHT22;4425;50.872;4.712;2024-03-06T04:39:34;4.70;99.90
8778;DHT22;4425;50.872;4.712;2024-03-06T04:42:02;4.70;99.90
8778;DHT22;4425;50.872;4.712;2024-03-06T04:44:29;4.60;99.90
8778;DHT22;4425;50.872;4.712;2024-03-06T04:46:59;4.60;99.90
8778;DHT22;4425;50.872;4.712;2024-03-06T04:49:26;4.70;99.90
8778;DHT22;4425;50.872;4.712;2024-03-06T04:51:53;4.60;99.90
8778;DHT22;4425;50.872;4.712;2024-03-06T04:54:20;4.60;99.90
8778;DHT22;4425;50.872;4.712;2024-03-06T04:56:49;4.50;99.90
8778;DHT22;4425;50.872;4.712;2024-03-06T04:59:16;4.50;99.90
8778;DHT22;4425;50.872;4.712;2024-03-06T05:01:43;4.60;99.90
8778;DHT22;4425;50.872;4.712;2024-03-06T05:04:10;4.50;99.90
8778;DHT22;4425;50.872;4.712;2024-03-06T05:06:38;4.50;99.90
8778;DHT22;4425;50.872;4.712;2024-03-06T05:09:05;4.40;99.90
8778;DHT22;4425;50.872;4.712;2024-03-06T05:11:37;4.50;99.90
8778;DHT22;4425;50.872;4.712;2024-03-06T05:14:07;4.40;99.90
8778;DHT22;4425;50.872;4.712;2024-03-06T05:16:49;4.40;99.90
8778;DHT22;4425;50.872;4.712;2024-03-06T05:19:17;4.40;99.90
8778;DHT22;4425;50.872;4.712;2024-03-06T05:21:44;4.50;99.90
8778;DHT22;4425;50.872;4.712;2024-03-06T05:24:11;4.30;99.90
8778;DHT22;4425;50.872;4.712;2024-03-06T05:26:43;4.30;99.90
8778;DHT22;4425;50.872;4.712;2024-03-06T05:29:11;4.30;99.90
8778;DHT22;4425;50.872;4.712;2024-03-06T05:31:38;4.30;99.90
8778;DHT22;4425;50.872;4.712;2024-03-06T05:34:06;4.20;99.90
8778;DHT22;4425;50.872;4.712;2024-03-06T05:36:33;4.20;99.90
8778;DHT22;4425;50.872;4.712;2024-03-06T05:39:00;4.20;99.90
8778;DHT22;4425;50.872;4.712;2024-03-06T05:41:28;4.10;99.90
8778;DHT22;4425;50.872;4.712;2024-03-06T05:43:56;4.10;99.90
8778;DHT22;4425;50.872;4.712;2024-03-06T05:46:24;4.10;99.90
8778;DHT22;4425;50.872;4.712;2024-03-06T05:48:51;4.10;99.90
8778;DHT22;4425;50.872;4.712;2024-03-06T05:51:18;4.10;99.90
8778;DHT22;4425;50.872;4.712;2024-03-06T05:53:46;4.10;99.90
8778;DHT22;4425;50.872;4.712;2024-03-06T05:56:13;4.10;99.90
8778;DHT22;4425;50.872;4.712;2024-03-06T05:58:40;4.10;99.90
8778;DHT22;4425;50.872;4.712;2024-03-06T06:01:07;4.10;99.90
8778;DHT22;4425;50.872;4.712;2024-03-06T06:03:35;4.10;99.90
8778;DHT22;4425;50.872;4.712;2024-03-06T06:06:04;4.10;99.90
8778;DHT22;4425;50.872;4.712;2024-03-06T06:08:31;4.10;99.90
8778;DHT22;4425;50.872;4.712;2024-03-06T06:10:58;4.10;99.90
8778;DHT22;4425;50.872;4.712;2024-03-06T06:13:31;4.10;99.90
8778;DHT22;4425;50.872;4.712;2024-03-06T06:16:00;4.00;99.90
8778;DHT22;4425;50.872;4.712;2024-03-06T06:18:28;4.00;99.90
8778;DHT22;4425;50.872;4.712;2024-03-06T06:20:58;4.00;99.90
8778;DHT22;4425;50.872;4.712;2024-03-06T06:23:25;4.00;99.90
8778;DHT22;4425;50.872;4.712;2024-03-06T06:25:52;4.00;99.90
8778;DHT22;4425;50.872;4.712;2024-03-06T06:28:19;4.10;99.90
8778;DHT22;4425;50.872;4.712;2024-03-06T06:30:46;4.10;99.90
8778;DHT22;4425;50.872;4.712;2024-03-06T06:33:13;4.10;99.90
8778;DHT22;4425;50.872;4.712;2024-03-06T06:35:40;4.10;99.90
8778;DHT22;4425;50.872;4.712;2024-03-06T06:38:08;4.20;99.90
8778;DHT22;4425;50.872;4.712;2024-03-06T06:40:38;4.20;99.90
8778;DHT22;4425;50.872;4.712;2024-03-06T06:43:07;4.30;99.90
8778;DHT22;4425;50.872;4.712;2024-03-06T06:45:34;4.20;99.90
8778;DHT22;4425;50.872;4.712;2024-03-06T06:48:05;4.40;99.90
8778;DHT22;4425;50.872;4.712;2024-03-06T06:50:35;4.40;99.90
8778;DHT22;4425;50.872;4.712;2024-03-06T06:53:02;4.50;99.90
8778;DHT22;4425;50.872;4.712;2024-03-06T06:55:30;4.60;99.90
8778;DHT22;4425;50.872;4.712;2024-03-06T06:57:57;4.70;99.90
8778;DHT22;4425;50.872;4.712;2024-03-06T07:00:25;4.80;99.90
8778;DHT22;4425;50.872;4.712;2024-03-06T07:02:56;4.90;99.90
8778;DHT22;4425;50.872;4.712;2024-03-06T07:05:26;5.00;99.90
8778;DHT22;4425;50.872;4.712;2024-03-06T07:08:07;5.00;99.90
8778;DHT22;4425;50.872;4.712;2024-03-06T07:10:36;5.00;99.90
8778;DHT22;4425;50.872;4.712;2024-03-06T07:13:03;5.10;99.90
8778;DHT22;4425;50.872;4.712;2024-03-06T07:15:31;5.10;99.90
8778;DHT22;4425;50.872;4.712;2024-03-06T07:17:58;5.10;99.90
8778;DHT22;4425;50.872;4.712;2024-03-06T07:20:26;5.10;99.90
8778;DHT22;4425;50.872;4.712;2024-03-06T07:22:53;5.10;99.90
8778;DHT22;4425;50.872;4.712;2024-03-06T07:25:20;5.20;99.90
8778;DHT22;4425;50.872;4.712;2024-03-06T07:27:49;5.20;99.90
8778;DHT22;4425;50.872;4.712;2024-03-06T07:30:16;5.30;99.90
8778;DHT22;4425;50.872;4.712;2024-03-06T07:32:43;5.30;99.90
8778;DHT22;4425;50.872;4.712;2024-03-06T07:35:10;5.40;99.90
8778;DHT22;4425;50.872;4.712;2024-03-06T07:37:37;5.40;99.90
8778;DHT22;4425;50.872;4.712;2024-03-06T07:40:06;5.40;99.90
8778;DHT22;4425;50.872;4.712;2024-03-06T07:42:36;5.50;99.90
8778;DHT22;4425;50.872;4.712;2024-03-06T07:45:05;6.40;99.90
8778;DHT22;4425;50.872;4.712;2024-03-06T07:47:34;8.20;99.90
8778;DHT22;4425;50.872;4.712;2024-03-06T07:50:04;9.80;99.90
8778;DHT22;4425;50.872;4.712;2024-03-06T07:52:31;11.20;99.90
8778;DHT22;4425;50.872;4.712;2024-03-06T07:54:58;12.10;99.90
8778;DHT22;4425;50.872;4.712;2024-03-06T07:57:26;12.50;99.90
8778;DHT22;4425;50.872;4.712;2024-03-06T07:59:54;12.80;99.90
8778;DHT22;4425;50.872;4.712;2024-03-06T08:02:22;13.20;99.90
8778;DHT22;4425;50.872;4.712;2024-03-06T08:04:50;13.40;99.90
8778;DHT22;4425;50.872;4.712;2024-03-06T08:07:17;13.70;99.90
8778;DHT22;4425;50.872;4.712;2024-03-06T08:09:44;14.20;99.90
8778;DHT22;4425;50.872;4.712;2024-03-06T08:12:11;14.90;99.90
8778;DHT22;4425;50.872;4.712;2024-03-06T08:14:38;15.40;99.90
8778;DHT22;4425;50.872;4.712;2024-03-06T08:17:05;15.60;99.90
8778;DHT22;4425;50.872;4.712;2024-03-06T08:19:35;15.90;99.90
8778;DHT22;4425;50.872;4.712;2024-03-06T08:22:02;15.90;99.90
8778;DHT22;4425;50.872;4.712;2024-03-06T08:24:29;16.20;99.90
8778;DHT22;4425;50.872;4.712;2024-03-06T08:26:56;16.10;99.90
8778;DHT22;4425;50.872;4.712;2024-03-06T08:29:24;16.30;99.90
8778;DHT22;4425;50.872;4.712;2024-03-06T08:31:51;16.10;99.90
8778;DHT22;4425;50.872;4.712;2024-03-06T08:34:18;15.00;99.90
8778;DHT22;4425;50.872;4.712;2024-03-06T08:36:49;13.80;99.90
8778;DHT22;4425;50.872;4.712;2024-03-06T08:39:17;12.70;99.90
8778;DHT22;4425;50.872;4.712;2024-03-06T08:41:44;11.60;99.90
8778;DHT22;4425;50.872;4.712;2024-03-06T08:44:11;10.70;99.90
8778;DHT22;4425;50.872;4.712;2024-03-06T08:46:39;10.10;99.90
8778;DHT22;4425;50.872;4.712;2024-03-06T08:49:06;9.70;99.90
8778;DHT22;4425;50.872;4.712;2024-03-06T08:51:34;9.40;99.90
8778;DHT22;4425;50.872;4.712;2024-03-06T08:54:03;9.10;99.90
8778;DHT22;4425;50.872;4.712;2024-03-06T08:56:30;8.90;99.90
8778;DHT22;4425;50.872;4.712;2024-03-06T08:58:59;8.80;99.90
8778;DHT22;4425;50.872;4.712;2024-03-06T09:01:26;8.80;99.90
8778;DHT22;4425;50.872;4.712;2024-03-06T09:03:53;8.90;99.90
8778;DHT22;4425;50.872;4.712;2024-03-06T09:06:23;9.00;99.90
8778;DHT22;4425;50.872;4.712;2024-03-06T09:08:50;8.90;99.90
8778;DHT22;4425;50.872;4.712;2024-03-06T09:11:18;9.00;99.90
8778;DHT22;4425;50.872;4.712;2024-03-06T09:13:45;8.90;99.90
8778;DHT22;4425;50.872;4.712;2024-03-06T09:16:12;8.80;99.90
8778;DHT22;4425;50.872;4.712;2024-03-06T09:18:40;8.80;99.90
8778;DHT22;4425;50.872;4.712;2024-03-06T09:21:07;8.90;99.90
8778;DHT22;4425;50.872;4.712;2024-03-06T09:23:37;8.90;99.90
8778;DHT22;4425;50.872;4.712;2024-03-06T09:26:04;9.00;99.90
8778;DHT22;4425;50.872;4.712;2024-03-06T09:28:34;9.10;99.90
8778;DHT22;4425;50.872;4.712;2024-03-06T09:31:01;9.10;99.90
8778;DHT22;4425;50.872;4.712;2024-03-06T09:33:28;9.20;99.90
8778;DHT22;4425;50.872;4.712;2024-03-06T09:35:55;9.30;99.90
8778;DHT22;4425;50.872;4.712;2024-03-06T09:38:24;9.40;99.90
8778;DHT22;4425;50.872;4.712;2024-03-06T09:40:51;9.50;99.90
8778;DHT22;4425;50.872;4.712;2024-03-06T09:43:22;9.70;99.90
8778;DHT22;4425;50.872;4.712;2024-03-06T09:45:52;9.70;99.90
8778;DHT22;4425;50.872;4.712;2024-03-06T09:48:20;9.70;99.90
8778;DHT22;4425;50.872;4.712;2024-03-06T09:50:49;9.80;99.90
8778;DHT22;4425;50.872;4.712;2024-03-06T09:53:18;9.90;99.90
8778;DHT22;4425;50.872;4.712;2024-03-06T09:55:48;9.90;99.90
8778;DHT22;4425;50.872;4.712;2024-03-06T09:58:16;10.00;99.90
8778;DHT22;4425;50.872;4.712;2024-03-06T10:00:43;10.10;99.90
8778;DHT22;4425;50.872;4.712;2024-03-06T10:03:14;10.20;99.90
8778;DHT22;4425;50.872;4.712;2024-03-06T10:05:41;10.20;99.90
8778;DHT22;4425;50.872;4.712;2024-03-06T10:08:09;10.20;99.90
8778;DHT22;4425;50.872;4.712;2024-03-06T10:10:36;10.20;99.90
8778;DHT22;4425;50.872;4.712;2024-03-06T10:13:04;10.20;99.90
8778;DHT22;4425;50.872;4.712;2024-03-06T10:15:32;10.20;99.90
8778;DHT22;4425;50.872;4.712;2024-03-06T10:18:14;10.40;99.90
8778;DHT22;4425;50.872;4.712;2024-03-06T10:20:42;10.60;99.90
8778;DHT22;4425;50.872;4.712;2024-03-06T10:23:10;10.70;99.90
8778;DHT22;4425;50.872;4.712;2024-03-06T10:25:37;10.70;99.90
8778;DHT22;4425;50.872;4.712;2024-03-06T10:28:06;10.60;99.90
8778;DHT22;4425;50.872;4.712;2024-03-06T10:30:34;10.50;99.90
8778;DHT22;4425;50.872;4.712;2024-03-06T10:33:02;10.40;99.90
8778;DHT22;4425;50.872;4.712;2024-03-06T10:35:31;10.40;99.90
8778;DHT22;4425;50.872;4.712;2024-03-06T10:38:00;10.50;99.90
8778;DHT22;4425;50.872;4.712;2024-03-06T10:40:31;10.40;99.90
8778;DHT22;4425;50.872;4.712;2024-03-06T10:42:58;10.50;99.90
8778;DHT22;4425;50.872;4.712;2024-03-06T10:45:32;10.60;99.90
8778;DHT22;4425;50.872;4.712;2024-03-06T10:48:03;10.70;99.90
8778;DHT22;4425;50.872;4.712;2024-03-06T10:50:32;10.60;99.90
8778;DHT22;4425;50.872;4.712;2024-03-06T10:53:00;10.60;99.90
8778;DHT22;4425;50.872;4.712;2024-03-06T10:55:30;10.70;99.90
8778;DHT22;4425;50.872;4.712;2024-03-06T10:58:00;10.70;99.90
8778;DHT22;4425;50.872;4.712;2024-03-06T11:00:27;10.80;99.90
8778;DHT22;4425;50.872;4.712;2024-03-06T11:02:56;10.90;99.90
8778;DHT22;4425;50.872;4.712;2024-03-06T11:05:24;10.90;99.90
8778;DHT22;4425;50.872;4.712;2024-03-06T11:07:54;10.90;99.90
8778;DHT22;4425;50.872;4.712;2024-03-06T11:10:32;11.00;99.90
8778;DHT22;4425;50.872;4.712;2024-03-06T11:13:00;11.10;99.90
8778;DHT22;4425;50.872;4.712;2024-03-06T11:15:28;11.20;99.90
8778;DHT22;4425;50.872;4.712;2024-03-06T11:17:56;11.30;99.90
8778;DHT22;4425;50.872;4.712;2024-03-06T11:20:23;11.40;99.90
8778;DHT22;4425;50.872;4.712;2024-03-06T11:23:07;11.40;99.90
8778;DHT22;4425;50.872;4.712;2024-03-06T11:25:56;11.40;99.90
8778;DHT22;4425;50.872;4.712;2024-03-06T11:28:26;11.50;99.90
8778;DHT22;4425;50.872;4.712;2024-03-06T11:30:58;11.50;99.90
8778;DHT22;4425;50.872;4.712;2024-03-06T11:33:34;11.40;99.90
8778;DHT22;4425;50.872;4.712;2024-03-06T11:36:28;11.30;99.90
8778;DHT22;4425;50.872;4.712;2024-03-06T11:38:58;11.40;99.90
8778;DHT22;4425;50.872;4.712;2024-03-06T11:41:27;11.50;99.90
8778;DHT22;4425;50.872;4.712;2024-03-06T11:43:55;11.60;99.90
8778;DHT22;4425;50.872;4.712;2024-03-06T11:46:41;11.80;99.90
8778;DHT22;4425;50.872;4.712;2024-03-06T11:49:15;11.90;99.90
8778;DHT22;4425;50.872;4.712;2024-03-06T11:51:44;12.00;99.90
8778;DHT22;4425;50.872;4.712;2024-03-06T11:54:14;11.90;99.90
8778;DHT22;4425;50.872;4.712;2024-03-06T11:56:44;11.90;99.90
8778;DHT22;4425;50.872;4.712;2024-03-06T11:59:12;11.90;99.90
8778;DHT22;4425;50.872;4.712;2024-03-06T12:01:40;11.90;99.90
8778;DHT22;4425;50.872;4.712;2024-03-06T12:04:08;11.90;99.90
8778;DHT22;4425;50.872;4.712;2024-03-06T12:06:36;11.90;99.90
8778;DHT22;4425;50.872;4.712;2024-03-06T12:09:04;11.90;99.90
8778;DHT22;4425;50.872;4.712;2024-03-06T12:11:38;12.00;99.90
8778;DHT22;4425;50.872;4.712;2024-03-06T12:14:05;12.20;99.90
8778;DHT22;4425;50.872;4.712;2024-03-06T12:16:33;12.30;99.90
8778;DHT22;4425;50.872;4.712;2024-03-06T12:19:00;12.40;99.90
8778;DHT22;4425;50.872;4.712;2024-03-06T12:21:31;12.40;99.90
8778;DHT22;4425;50.872;4.712;2024-03-06T12:24:05;12.40;99.90
8778;DHT22;4425;50.872;4.712;2024-03-06T12:26:32;12.50;99.90
8778;DHT22;4425;50.872;4.712;2024-03-06T12:29:08;12.50;99.90
8778;DHT22;4425;50.872;4.712;2024-03-06T12:31:38;12.50;99.90
8778;DHT22;4425;50.872;4.712;2024-03-06T12:34:06;12.40;99.90
8778;DHT22;4425;50.872;4.712;2024-03-06T12:36:34;12.40;99.90
8778;DHT22;4425;50.872;4.712;2024-03-06T12:39:03;12.40;99.90
8778;DHT22;4425;50.872;4.712;2024-03-06T12:41:39;12.40;99.90
8778;DHT22;4425;50.872;4.712;2024-03-06T12:44:08;12.70;99.90
8778;DHT22;4425;50.872;4.712;2024-03-06T12:46:35;12.80;99.90
8778;DHT22;4425;50.872;4.712;2024-03-06T12:49:02;12.90;99.90
8778;DHT22;4425;50.872;4.712;2024-03-06T12:51:29;13.00;99.90
8778;DHT22;4425;50.872;4.712;2024-03-06T12:53:58;13.00;99.90
8778;DHT22;4425;50.872;4.712;2024-03-06T12:56:26;12.90;99.90
8778;DHT22;4425;50.872;4.712;2024-03-06T12:58:53;12.80;99.90
8778;DHT22;4425;50.872;4.712;2024-03-06T13:01:21;12.70;99.90
8778;DHT22;4425;50.872;4.712;2024-03-06T13:03:49;12.50;99.90
8778;DHT22;4425;50.872;4.712;2024-03-06T13:06:16;12.50;99.90
8778;DHT22;4425;50.872;4.712;2024-03-06T13:08:44;12.60;99.90
8778;DHT22;4425;50.872;4.712;2024-03-06T13:11:11;12.60;99.90
8778;DHT22;4425;50.872;4.712;2024-03-06T13:13:38;12.50;99.90
8778;DHT22;4425;50.872;4.712;2024-03-06T13:16:06;12.30;99.90
8778;DHT22;4425;50.872;4.712;2024-03-06T13:18:43;12.30;99.90
8778;DHT22;4425;50.872;4.712;2024-03-06T13:21:11;12.30;99.90
8778;DHT22;4425;50.872;4.712;2024-03-06T13:23:38;12.40;99.90
8778;DHT22;4425;50.872;4.712;2024-03-06T13:26:05;12.40;99.90
8778;DHT22;4425;50.872;4.712;2024-03-06T13:28:32;12.50;99.90
8778;DHT22;4425;50.872;4.712;2024-03-06T13:30:59;12.40;99.90
8778;DHT22;4425;50.872;4.712;2024-03-06T13:33:27;12.40;99.90
8778;DHT22;4425;50.872;4.712;2024-03-06T13:35:55;12.30;99.90
8778;DHT22;4425;50.872;4.712;2024-03-06T13:38:22;12.30;99.90
8778;DHT22;4425;50.872;4.712;2024-03-06T13:40:49;12.40;99.90
8778;DHT22;4425;50.872;4.712;2024-03-06T13:43:16;12.40;99.90
8778;DHT22;4425;50.872;4.712;2024-03-06T13:45:49;12.40;99.90
8778;DHT22;4425;50.872;4.712;2024-03-06T13:48:16;12.50;99.90
8778;DHT22;4425;50.872;4.712;2024-03-06T13:50:43;12.50;99.90
8778;DHT22;4425;50.872;4.712;2024-03-06T13:53:12;12.40;99.90
8778;DHT22;4425;50.872;4.712;2024-03-06T13:55:39;12.50;99.90
8778;DHT22;4425;50.872;4.712;2024-03-06T13:58:07;12.50;99.90
8778;DHT22;4425;50.872;4.712;2024-03-06T14:00:34;12.50;99.90
8778;DHT22;4425;50.872;4.712;2024-03-06T14:03:01;12.50;99.90
8778;DHT22;4425;50.872;4.712;2024-03-06T14:05:29;12.50;99.90
8778;DHT22;4425;50.872;4.712;2024-03-06T14:07:56;12.40;99.90
8778;DHT22;4425;50.872;4.712;2024-03-06T14:10:26;12.50;99.90
8778;DHT22;4425;50.872;4.712;2024-03-06T14:12:53;12.70;99.90
8778;DHT22;4425;50.872;4.712;2024-03-06T14:15:21;12.90;99.90
8778;DHT22;4425;50.872;4.712;2024-03-06T14:17:49;13.00;99.90
8778;DHT22;4425;50.872;4.712;2024-03-06T14:20:16;13.10;99.90
8778;DHT22;4425;50.872;4.712;2024-03-06T14:22:48;13.30;99.90
8778;DHT22;4425;50.872;4.712;2024-03-06T14:25:15;13.50;99.90
8778;DHT22;4425;50.872;4.712;2024-03-06T14:27:46;13.70;99.90
8778;DHT22;4425;50.872;4.712;2024-03-06T14:30:14;13.70;99.90
8778;DHT22;4425;50.872;4.712;2024-03-06T14:32:41;13.60;99.90
8778;DHT22;4425;50.872;4.712;2024-03-06T14:35:09;13.50;99.90
8778;DHT22;4425;50.872;4.712;2024-03-06T14:37:36;13.50;99.90
8778;DHT22;4425;50.872;4.712;2024-03-06T14:40:06;13.50;99.90
8778;DHT22;4425;50.872;4.712;2024-03-06T14:42:34;13.40;99.90
8778;DHT22;4425;50.872;4.712;2024-03-06T14:45:03;13.50;99.90
8778;DHT22;4425;50.872;4.712;2024-03-06T14:47:31;13.30;99.90
8778;DHT22;4425;50.872;4.712;2024-03-06T14:49:58;13.10;99.90
8778;DHT22;4425;50.872;4.712;2024-03-06T14:52:25;13.00;99.90
8778;DHT22;4425;50.872;4.712;2024-03-06T14:54:52;12.90;99.90
8778;DHT22;4425;50.872;4.712;2024-03-06T14:57:20;12.80;99.90
8778;DHT22;4425;50.872;4.712;2024-03-06T14:59:49;13.00;99.90
8778;DHT22;4425;50.872;4.712;2024-03-06T15:02:18;13.20;99.90
8778;DHT22;4425;50.872;4.712;2024-03-06T15:04:45;13.30;99.90
8778;DHT22;4425;50.872;4.712;2024-03-06T15:07:12;13.30;99.90
8778;DHT22;4425;50.872;4.712;2024-03-06T15:09:39;13.30;99.90
8778;DHT22;4425;50.872;4.712;2024-03-06T15:12:07;13.20;99.90
8778;DHT22;4425;50.872;4.712;2024-03-06T15:14:35;13.00;99.90
8778;DHT22;4425;50.872;4.712;2024-03-06T15:17:05;12.90;99.90
8778;DHT22;4425;50.872;4.712;2024-03-06T15:19:34;12.60;99.90
8778;DHT22;4425;50.872;4.712;2024-03-06T15:22:03;12.50;99.90
8778;DHT22;4425;50.872;4.712;2024-03-06T15:24:30;12.30;99.90
8778;DHT22;4425;50.872;4.712;2024-03-06T15:26:58;12.10;99.90
8778;DHT22;4425;50.872;4.712;2024-03-06T15:29:27;12.00;99.90
8778;DHT22;4425;50.872;4.712;2024-03-06T15:31:54;11.90;99.90
8778;DHT22;4425;50.872;4.712;2024-03-06T15:34:22;11.80;99.90
8778;DHT22;4425;50.872;4.712;2024-03-06T15:36:50;11.80;99.90
8778;DHT22;4425;50.872;4.712;2024-03-06T15:39:18;11.70;99.90
8778;DHT22;4425;50.872;4.712;2024-03-06T15:41:47;11.60;99.90
8778;DHT22;4425;50.872;4.712;2024-03-06T15:44:14;11.60;99.90
8778;DHT22;4425;50.872;4.712;2024-03-06T15:46:41;11.60;99.90
8778;DHT22;4425;50.872;4.712;2024-03-06T15:49:19;11.60;99.90
8778;DHT22;4425;50.872;4.712;2024-03-06T15:51:47;11.60;99.90
8778;DHT22;4425;50.872;4.712;2024-03-06T15:54:15;11.60;99.90
8778;DHT22;4425;50.872;4.712;2024-03-06T15:56:42;11.50;99.90
8778;DHT22;4425;50.872;4.712;2024-03-06T15:59:10;11.60;99.90
8778;DHT22;4425;50.872;4.712;2024-03-06T16:01:37;11.50;99.90
8778;DHT22;4425;50.872;4.712;2024-03-06T16:04:10;11.60;99.90
8778;DHT22;4425;50.872;4.712;2024-03-06T16:06:37;11.50;99.90
8778;DHT22;4425;50.872;4.712;2024-03-06T16:09:06;11.50;99.90
8778;DHT22;4425;50.872;4.712;2024-03-06T16:11:37;11.50;99.90
8778;DHT22;4425;50.872;4.712;2024-03-06T16:14:05;11.40;99.90
8778;DHT22;4425;50.872;4.712;2024-03-06T16:16:32;11.40;99.90
8778;DHT22;4425;50.872;4.712;2024-03-06T16:19:00;11.30;99.90